sensor_id;sensor_type;location;lat;lon;timestamp;pressure;altitude;pressure_sealevel;temperature;humidity
7668;BME280;3876;42.204;24.686;2023-02-01T00:02:02;99536.84;;;3.50;94.62
7668;BME280;3876;42.204;24.686;2023-02-01T00:04:29;99536.84;;;3.53;94.59
7668;BME280;3876;42.204;24.686;2023-02-01T00:06:55;99541.91;;;3.53;94.68
7668;BME280;3876;42.204;24.686;2023-02-01T00:09:23;99535.16;;;3.43;94.57
7668;BME280;3876;42.204;24.686;2023-02-01T00:11:50;99552.94;;;3.49;94.99
7668;BME280;3876;42.204;24.686;2023-02-01T00:14:17;99549.53;;;3.51;94.95
7668;BME280;3876;42.204;24.686;2023-02-01T00:16:43;99550.41;;;3.49;94.54
7668;BME280;3876;42.204;24.686;2023-02-01T00:19:14;99557.13;;;3.53;94.63
7668;BME280;3876;42.204;24.686;2023-02-01T00:21:41;99557.97;;;3.53;94.29
7668;BME280;3876;42.204;24.686;2023-02-01T00:24:09;99546.16;;;3.57;94.03
7668;BME280;3876;42.204;24.686;2023-02-01T00:26:38;99555.47;;;3.61;93.73
7668;BME280;3876;42.204;24.686;2023-02-01T00:29:07;99548.69;;;3.63;93.51
7668;BME280;3876;42.204;24.686;2023-02-01T00:31:35;99545.31;;;3.62;93.55
7668;BME280;3876;42.204;24.686;2023-02-01T00:34:02;99543.63;;;3.63;92.91
7668;BME280;3876;42.204;24.686;2023-02-01T00:36:30;99545.31;;;3.61;92.94
7668;BME280;3876;42.204;24.686;2023-02-01T00:38:57;99542.78;;;3.61;93.37
7668;BME280;3876;42.204;24.686;2023-02-01T00:41:25;99539.41;;;3.54;93.46
7668;BME280;3876;42.204;24.686;2023-02-01T00:43:52;99528.41;;;3.39;93.67
7668;BME280;3876;42.204;24.686;2023-02-01T00:46:19;99553.75;;;3.51;93.92
7668;BME280;3876;42.204;24.686;2023-02-01T00:48:47;99548.69;;;3.45;94.11
7668;BME280;3876;42.204;24.686;2023-02-01T00:51:16;99553.75;;;3.42;94.13
7668;BME280;3876;42.204;24.686;2023-02-01T00:53:45;99552.06;;;3.39;94.47
7668;BME280;3876;42.204;24.686;2023-02-01T00:56:12;99552.91;;;3.41;93.98
7668;BME280;3876;42.204;24.686;2023-02-01T00:58:39;99543.63;;;3.39;93.70
7668;BME280;3876;42.204;24.686;2023-02-01T01:01:08;99552.03;;;3.36;92.90
7668;BME280;3876;42.204;24.686;2023-02-01T01:03:37;99543.63;;;3.39;92.37
7668;BME280;3876;42.204;24.686;2023-02-01T01:06:06;99537.72;;;3.38;92.35
7668;BME280;3876;42.204;24.686;2023-02-01T01:08:33;99531.81;;;3.39;92.71
7668;BME280;3876;42.204;24.686;2023-02-01T01:11:05;99540.22;;;3.34;92.88
7668;BME280;3876;42.204;24.686;2023-02-01T01:13:32;99530.09;;;3.31;93.00
7668;BME280;3876;42.204;24.686;2023-02-01T01:16:00;99534.31;;;3.32;93.04
7668;BME280;3876;42.204;24.686;2023-02-01T01:18:29;99540.22;;;3.28;93.54
7668;BME280;3876;42.204;24.686;2023-02-01T01:20:56;99540.22;;;3.28;93.36
7668;BME280;3876;42.204;24.686;2023-02-01T01:23:23;99528.38;;;3.24;93.68
7668;BME280;3876;42.204;24.686;2023-02-01T01:25:50;99520.81;;;3.25;93.54
7668;BME280;3876;42.204;24.686;2023-02-01T01:28:18;99530.91;;;3.24;94.10
7668;BME280;3876;42.204;24.686;2023-02-01T01:30:46;99531.78;;;3.23;93.87
7668;BME280;3876;42.204;24.686;2023-02-01T01:33:13;99530.09;;;3.18;94.14
7668;BME280;3876;42.204;24.686;2023-02-01T01:35:40;99540.22;;;3.22;93.88
7668;BME280;3876;42.204;24.686;2023-02-01T01:38:06;99529.22;;;3.09;94.35
7668;BME280;3876;42.204;24.686;2023-02-01T01:40:34;99535.13;;;3.12;94.39
7668;BME280;3876;42.204;24.686;2023-02-01T01:43:01;99526.69;;;3.13;94.36
7668;BME280;3876;42.204;24.686;2023-02-01T01:45:31;99526.66;;;3.01;94.92
7668;BME280;3876;42.204;24.686;2023-02-01T01:48:01;99535.13;;;3.06;94.98
7668;BME280;3876;42.204;24.686;2023-02-01T01:50:33;99533.44;;;3.08;94.63
7668;BME280;3876;42.204;24.686;2023-02-01T01:53:05;99532.59;;;3.09;94.83
7668;BME280;3876;42.204;24.686;2023-02-01T01:55:37;99531.75;;;3.10;94.66
7668;BME280;3876;42.204;24.686;2023-02-01T01:58:08;99535.13;;;3.12;94.86
7668;BME280;3876;42.204;24.686;2023-02-01T02:00:38;99532.59;;;3.11;94.47
7668;BME280;3876;42.204;24.686;2023-02-01T02:03:11;99535.97;;;3.11;94.47
7668;BME280;3876;42.204;24.686;2023-02-01T02:05:40;99536.81;;;3.10;94.67
7668;BME280;3876;42.204;24.686;2023-02-01T02:08:07;99533.44;;;3.11;94.30
7668;BME280;3876;42.204;24.686;2023-02-01T02:10:36;99534.28;;;3.10;94.52
7668;BME280;3876;42.204;24.686;2023-02-01T02:13:20;99525.84;;;3.10;94.65
7668;BME280;3876;42.204;24.686;2023-02-01T02:15:56;99520.78;;;3.07;94.75
7668;BME280;3876;42.204;24.686;2023-02-01T02:18:31;99536.81;;;3.04;94.89
7668;BME280;3876;42.204;24.686;2023-02-01T02:21:14;99523.28;;;2.99;94.96
7668;BME280;3876;42.204;24.686;2023-02-01T02:24:09;99526.66;;;2.94;95.21
7668;BME280;3876;42.204;24.686;2023-02-01T02:27:00;99535.06;;;2.88;95.79
7668;BME280;3876;42.204;24.686;2023-02-01T02:30:07;99541.78;;;2.74;96.48
7668;BME280;3876;42.204;24.686;2023-02-01T02:36:01;99541.75;;;2.65;96.69
7668;BME280;3876;42.204;24.686;2023-02-01T02:38:35;99552.72;;;2.61;97.05
7668;BME280;3876;42.204;24.686;2023-02-01T02:41:12;99554.34;;;2.53;97.04
7668;BME280;3876;42.204;24.686;2023-02-01T02:44:07;99546.72;;;2.44;97.64
7668;BME280;3876;42.204;24.686;2023-02-01T02:46:54;99553.50;;;2.48;97.83
7668;BME280;3876;42.204;24.686;2023-02-01T02:49:49;99547.59;;;2.47;97.91
7668;BME280;3876;42.204;24.686;2023-02-01T02:52:46;99558.53;;;2.45;97.96
7668;BME280;3876;42.204;24.686;2023-02-01T02:55:33;99550.09;;;2.49;98.08
7668;BME280;3876;42.204;24.686;2023-02-01T02:58:04;99556.00;;;2.45;97.82
7668;BME280;3876;42.204;24.686;2023-02-01T03:00:50;99552.59;;;2.37;98.01
7668;BME280;3876;42.204;24.686;2023-02-01T03:03:36;99547.53;;;2.32;98.25
7668;BME280;3876;42.204;24.686;2023-02-01T03:06:22;99542.47;;;2.34;98.08
7668;BME280;3876;42.204;24.686;2023-02-01T03:08:51;99548.34;;;2.33;98.14
7668;BME280;3876;42.204;24.686;2023-02-01T03:11:23;99550.03;;;2.34;98.07
7668;BME280;3876;42.204;24.686;2023-02-01T03:14:14;99546.66;;;2.33;98.23
7668;BME280;3876;42.204;24.686;2023-02-01T03:16:45;99547.47;;;2.25;98.35
7668;BME280;3876;42.204;24.686;2023-02-01T03:19:16;99544.03;;;2.17;98.64
7668;BME280;3876;42.204;24.686;2023-02-01T03:21:48;99544.91;;;2.16;99.15
7668;BME280;3876;42.204;24.686;2023-02-01T03:24:21;99544.09;;;2.23;100.00
7668;BME280;3876;42.204;24.686;2023-02-01T03:27:02;99540.78;;;2.34;100.00
7668;BME280;3876;42.204;24.686;2023-02-01T03:29:38;99551.81;;;2.45;100.00
7668;BME280;3876;42.204;24.686;2023-02-01T03:32:07;99542.50;;;2.43;100.00
7668;BME280;3876;42.204;24.686;2023-02-01T03:34:35;99557.75;;;2.56;99.72
7668;BME280;3876;42.204;24.686;2023-02-01T03:37:03;99557.75;;;2.62;99.22
7668;BME280;3876;42.204;24.686;2023-02-01T03:39:36;99551.84;;;2.62;99.42
7668;BME280;3876;42.204;24.686;2023-02-01T03:42:08;99554.41;;;2.63;98.96
7668;BME280;3876;42.204;24.686;2023-02-01T03:44:40;99545.13;;;2.61;99.06
7668;BME280;3876;42.204;24.686;2023-02-01T03:47:10;99552.69;;;2.62;99.42
7668;BME280;3876;42.204;24.686;2023-02-01T03:49:41;99512.16;;;2.41;98.99
7668;BME280;3876;42.204;24.686;2023-02-01T03:52:13;99549.31;;;2.54;99.32
7668;BME280;3876;42.204;24.686;2023-02-01T03:54:43;99554.34;;;2.50;100.00
7668;BME280;3876;42.204;24.686;2023-02-01T03:57:13;99553.50;;;2.48;99.77
7668;BME280;3876;42.204;24.686;2023-02-01T03:59:45;99546.75;;;2.42;100.00
7668;BME280;3876;42.204;24.686;2023-02-01T04:02:11;99551.75;;;2.38;100.00
7668;BME280;3876;42.204;24.686;2023-02-01T04:04:38;99555.13;;;2.37;100.00
7668;BME280;3876;42.204;24.686;2023-02-01T04:07:05;99557.63;;;2.29;100.00
7668;BME280;3876;42.204;24.686;2023-02-01T04:09:32;99560.94;;;2.24;100.00
7668;BME280;3876;42.204;24.686;2023-02-01T04:12:00;99549.91;;;2.06;100.00
7668;BME280;3876;42.204;24.686;2023-02-01T04:14:27;99556.69;;;2.17;100.00
7668;BME280;3876;42.204;24.686;2023-02-01T04:16:54;99566.84;;;2.20;100.00
7668;BME280;3876;42.204;24.686;2023-02-01T04:19:21;99574.47;;;2.26;100.00
7668;BME280;3876;42.204;24.686;2023-02-01T04:21:47;99582.94;;;2.32;99.75
7668;BME280;3876;42.204;24.686;2023-02-01T04:24:14;99582.09;;;2.35;99.21
7668;BME280;3876;42.204;24.686;2023-02-01T04:26:41;99585.47;;;2.32;99.21
7668;BME280;3876;42.204;24.686;2023-02-01T04:29:10;99592.19;;;2.32;98.87
7668;BME280;3876;42.204;24.686;2023-02-01T04:31:37;99593.88;;;2.33;98.81
7668;BME280;3876;42.204;24.686;2023-02-01T04:34:03;99593.88;;;2.33;98.41
7668;BME280;3876;42.204;24.686;2023-02-01T04:36:30;99598.97;;;2.36;98.34
7668;BME280;3876;42.204;24.686;2023-02-01T04:38:57;99597.31;;;2.41;97.98
7668;BME280;3876;42.204;24.686;2023-02-01T04:41:23;99602.38;;;2.44;97.91
7668;BME280;3876;42.204;24.686;2023-02-01T04:43:51;99594.78;;;2.41;97.86
7668;BME280;3876;42.204;24.686;2023-02-01T04:46:19;99602.34;;;2.38;98.09
7668;BME280;3876;42.204;24.686;2023-02-01T04:48:46;99605.69;;;2.34;98.01
7668;BME280;3876;42.204;24.686;2023-02-01T04:51:13;99604.00;;;2.33;97.62
7668;BME280;3876;42.204;24.686;2023-02-01T04:53:40;99599.00;;;2.39;96.51
7668;BME280;3876;42.204;24.686;2023-02-01T04:56:07;99596.47;;;2.39;96.46
7668;BME280;3876;42.204;24.686;2023-02-01T04:58:34;99602.41;;;2.47;96.22
7668;BME280;3876;42.204;24.686;2023-02-01T05:01:02;99603.28;;;2.52;95.65
7668;BME280;3876;42.204;24.686;2023-02-01T05:03:31;99600.78;;;2.55;95.37
7668;BME280;3876;42.204;24.686;2023-02-01T05:05:58;99610.91;;;2.58;94.95
7668;BME280;3876;42.204;24.686;2023-02-01T05:08:25;99584.72;;;2.51;94.54
7668;BME280;3876;42.204;24.686;2023-02-01T05:10:54;99614.31;;;2.72;94.14
7668;BME280;3876;42.204;24.686;2023-02-01T05:13:20;99616.03;;;2.73;93.70
7668;BME280;3876;42.204;24.686;2023-02-01T05:16:05;99621.09;;;2.76;94.13
7668;BME280;3876;42.204;24.686;2023-02-01T05:18:33;99604.22;;;2.78;93.68
7668;BME280;3876;42.204;24.686;2023-02-01T05:21:00;99619.44;;;2.81;93.32
7668;BME280;3876;42.204;24.686;2023-02-01T05:23:27;99618.59;;;2.85;92.85
7668;BME280;3876;42.204;24.686;2023-02-01T05:25:58;99594.16;;;2.87;92.97
7668;BME280;3876;42.204;24.686;2023-02-01T05:28:26;99606.81;;;2.95;92.40
7668;BME280;3876;42.204;24.686;2023-02-01T05:30:53;99600.91;;;2.97;91.46
7668;BME280;3876;42.204;24.686;2023-02-01T05:33:20;99601.84;;;3.07;91.43
7668;BME280;3876;42.204;24.686;2023-02-01T05:35:48;99595.06;;;3.06;91.71
7668;BME280;3876;42.204;24.686;2023-02-01T05:38:15;99600.97;;;3.06;92.11
7668;BME280;3876;42.204;24.686;2023-02-01T05:40:42;99595.94;;;3.12;92.28
7668;BME280;3876;42.204;24.686;2023-02-01T05:43:14;99598.47;;;3.12;92.83
7668;BME280;3876;42.204;24.686;2023-02-01T05:45:41;99594.22;;;3.14;93.13
7668;BME280;3876;42.204;24.686;2023-02-01T05:48:08;99588.31;;;3.12;92.20
7668;BME280;3876;42.204;24.686;2023-02-01T05:50:35;99584.09;;;3.17;90.89
7668;BME280;3876;42.204;24.686;2023-02-01T05:53:03;99596.78;;;3.21;90.42
7668;BME280;3876;42.204;24.686;2023-02-01T05:55:30;99592.59;;;3.29;90.10
7668;BME280;3876;42.204;24.686;2023-02-01T05:57:57;99597.66;;;3.38;89.72
7668;BME280;3876;42.204;24.686;2023-02-01T06:00:24;99606.97;;;3.46;88.94
7668;BME280;3876;42.204;24.686;2023-02-01T06:02:50;99604.44;;;3.51;89.30
7668;BME280;3876;42.204;24.686;2023-02-01T06:05:17;99606.16;;;3.52;90.88
7668;BME280;3876;42.204;24.686;2023-02-01T06:07:44;99599.38;;;3.45;90.22
7668;BME280;3876;42.204;24.686;2023-02-01T06:10:12;99602.75;;;3.41;89.87
7668;BME280;3876;42.204;24.686;2023-02-01T06:12:39;99611.16;;;3.40;89.88
7668;BME280;3876;42.204;24.686;2023-02-01T06:15:07;99617.09;;;3.43;90.02
7668;BME280;3876;42.204;24.686;2023-02-01T06:17:34;99609.53;;;3.51;89.38
7668;BME280;3876;42.204;24.686;2023-02-01T06:20:01;99612.88;;;3.53;88.94
7668;BME280;3876;42.204;24.686;2023-02-01T06:22:28;99610.38;;;3.57;88.38
7668;BME280;3876;42.204;24.686;2023-02-01T06:24:55;99612.06;;;3.67;86.55
7668;BME280;3876;42.204;24.686;2023-02-01T06:27:25;99621.38;;;3.70;86.68
7668;BME280;3876;42.204;24.686;2023-02-01T06:29:52;99627.28;;;3.77;86.67
7668;BME280;3876;42.204;24.686;2023-02-01T06:32:20;99630.66;;;3.85;86.47
7668;BME280;3876;42.204;24.686;2023-02-01T06:34:48;99628.13;;;3.86;85.38
7668;BME280;3876;42.204;24.686;2023-02-01T06:37:15;99634.91;;;3.84;86.63
7668;BME280;3876;42.204;24.686;2023-02-01T06:39:41;99634.91;;;3.86;86.68
7668;BME280;3876;42.204;24.686;2023-02-01T06:42:08;99627.31;;;3.81;86.00
7668;BME280;3876;42.204;24.686;2023-02-01T06:44:36;99623.06;;;3.89;85.58
7668;BME280;3876;42.204;24.686;2023-02-01T06:47:03;99629.84;;;3.96;85.58
7668;BME280;3876;42.204;24.686;2023-02-01T06:49:30;99632.34;;;4.01;84.50
7668;BME280;3876;42.204;24.686;2023-02-01T06:51:57;99630.66;;;4.10;84.49
7668;BME280;3876;42.204;24.686;2023-02-01T06:54:25;99637.44;;;4.14;84.18
7668;BME280;3876;42.204;24.686;2023-02-01T06:56:52;99636.59;;;4.06;84.51
7668;BME280;3876;42.204;24.686;2023-02-01T06:59:19;99641.66;;;4.12;83.77
7668;BME280;3876;42.204;24.686;2023-02-01T07:01:47;99639.97;;;4.14;83.37
7668;BME280;3876;42.204;24.686;2023-02-01T07:04:13;99637.41;;;4.23;83.63
7668;BME280;3876;42.204;24.686;2023-02-01T07:06:40;99645.03;;;4.39;83.41
7668;BME280;3876;42.204;24.686;2023-02-01T07:09:07;99642.50;;;4.36;82.32
7668;BME280;3876;42.204;24.686;2023-02-01T07:11:35;99647.56;;;4.33;82.48
7668;BME280;3876;42.204;24.686;2023-02-01T07:14:06;99639.97;;;4.33;82.55
7668;BME280;3876;42.204;24.686;2023-02-01T07:16:33;99643.34;;;4.26;82.56
7668;BME280;3876;42.204;24.686;2023-02-01T07:19:01;99645.88;;;4.27;82.46
7668;BME280;3876;42.204;24.686;2023-02-01T07:21:28;99648.41;;;4.29;82.33
7668;BME280;3876;42.204;24.686;2023-02-01T07:23:55;99650.13;;;4.30;82.90
7668;BME280;3876;42.204;24.686;2023-02-01T07:26:22;99650.13;;;4.33;82.52
7668;BME280;3876;42.204;24.686;2023-02-01T07:28:48;99659.41;;;4.35;82.15
7668;BME280;3876;42.204;24.686;2023-02-01T07:31:17;99650.09;;;4.36;82.29
7668;BME280;3876;42.204;24.686;2023-02-01T07:33:46;99656.84;;;4.43;81.94
7668;BME280;3876;42.204;24.686;2023-02-01T07:36:16;99656.88;;;4.46;82.61
7668;BME280;3876;42.204;24.686;2023-02-01T07:38:43;99659.38;;;4.52;81.66
7668;BME280;3876;42.204;24.686;2023-02-01T07:41:10;99656.84;;;4.58;82.57
7668;BME280;3876;42.204;24.686;2023-02-01T07:43:37;99647.50;;;4.66;81.95
7668;BME280;3876;42.204;24.686;2023-02-01T07:46:05;99662.72;;;4.73;81.50
7668;BME280;3876;42.204;24.686;2023-02-01T07:48:32;99661.00;;;4.80;81.61
7668;BME280;3876;42.204;24.686;2023-02-01T07:51:00;99660.16;;;4.87;80.70
7668;BME280;3876;42.204;24.686;2023-02-01T07:53:29;99666.91;;;4.94;80.84
7668;BME280;3876;42.204;24.686;2023-02-01T07:55:56;99663.47;;;4.98;80.92
7668;BME280;3876;42.204;24.686;2023-02-01T07:58:24;99665.13;;;5.08;81.38
7668;BME280;3876;42.204;24.686;2023-02-01T08:00:51;99661.75;;;5.12;80.87
7668;BME280;3876;42.204;24.686;2023-02-01T08:03:36;99661.72;;;5.15;80.93
7668;BME280;3876;42.204;24.686;2023-02-01T08:06:03;99665.06;;;5.20;80.29
7668;BME280;3876;42.204;24.686;2023-02-01T08:08:33;99657.44;;;5.20;80.67
7668;BME280;3876;42.204;24.686;2023-02-01T08:11:01;99659.97;;;5.23;80.79
7668;BME280;3876;42.204;24.686;2023-02-01T08:13:28;99659.97;;;5.28;80.47
7668;BME280;3876;42.204;24.686;2023-02-01T08:15:57;99661.66;;;5.27;80.92
7668;BME280;3876;42.204;24.686;2023-02-01T08:18:24;99672.66;;;5.34;81.19
7668;BME280;3876;42.204;24.686;2023-02-01T08:20:51;99654.88;;;5.33;81.78
7668;BME280;3876;42.204;24.686;2023-02-01T08:23:18;99659.88;;;5.45;81.77
7668;BME280;3876;42.204;24.686;2023-02-01T08:25:46;99661.56;;;5.47;82.38
7668;BME280;3876;42.204;24.686;2023-02-01T08:28:13;99666.59;;;5.58;81.89
7668;BME280;3876;42.204;24.686;2023-02-01T08:30:40;99668.25;;;5.65;81.82
7668;BME280;3876;42.204;24.686;2023-02-01T08:33:08;99666.50;;;5.70;82.30
7668;BME280;3876;42.204;24.686;2023-02-01T08:35:37;99671.53;;;5.79;82.44
7668;BME280;3876;42.204;24.686;2023-02-01T08:38:05;99668.16;;;5.80;82.36
7668;BME280;3876;42.204;24.686;2023-02-01T08:40:31;99675.75;;;5.85;82.57
7668;BME280;3876;42.204;24.686;2023-02-01T08:43:00;99676.53;;;6.00;82.71
7668;BME280;3876;42.204;24.686;2023-02-01T08:45:28;99678.16;;;6.06;82.39
7668;BME280;3876;42.204;24.686;2023-02-01T08:47:56;99667.91;;;6.16;82.85
7668;BME280;3876;42.204;24.686;2023-02-01T08:50:24;99672.91;;;6.25;82.31
7668;BME280;3876;42.204;24.686;2023-02-01T08:52:52;99666.88;;;6.39;81.96
7668;BME280;3876;42.204;24.686;2023-02-01T08:55:19;99664.22;;;6.48;80.72
7668;BME280;3876;42.204;24.686;2023-02-01T08:57:46;99667.56;;;6.56;79.50
7668;BME280;3876;42.204;24.686;2023-02-01T09:00:16;99670.75;;;6.73;78.91
7668;BME280;3876;42.204;24.686;2023-02-01T09:02:44;99666.38;;;6.85;79.29
7668;BME280;3876;42.204;24.686;2023-02-01T09:05:11;99663.66;;;7.02;78.07
7668;BME280;3876;42.204;24.686;2023-02-01T09:07:40;99661.81;;;7.13;77.89
7668;BME280;3876;42.204;24.686;2023-02-01T09:10:07;99655.56;;;7.37;77.58
7668;BME280;3876;42.204;24.686;2023-02-01T09:12:35;99657.75;;;7.64;75.99
7668;BME280;3876;42.204;24.686;2023-02-01T09:15:04;99648.13;;;7.81;75.26
7668;BME280;3876;42.204;24.686;2023-02-01T09:17:33;99643.69;;;7.94;73.24
7668;BME280;3876;42.204;24.686;2023-02-01T09:20:02;99643.50;;;8.05;73.16
7668;BME280;3876;42.204;24.686;2023-02-01T09:22:29;99646.72;;;8.17;74.28
7668;BME280;3876;42.204;24.686;2023-02-01T09:24:56;99648.97;;;8.35;73.04
7668;BME280;3876;42.204;24.686;2023-02-01T09:27:22;99648.00;;;8.42;72.67
7668;BME280;3876;42.204;24.686;2023-02-01T09:29:50;99637.56;;;8.53;71.48
7668;BME280;3876;42.204;24.686;2023-02-01T09:32:19;99634.78;;;8.67;71.28
7668;BME280;3876;42.204;24.686;2023-02-01T09:34:47;99626.94;;;8.76;70.20
7668;BME280;3876;42.204;24.686;2023-02-01T09:37:14;99619.97;;;8.84;67.76
7668;BME280;3876;42.204;24.686;2023-02-01T09:39:41;99622.34;;;8.93;67.94
7668;BME280;3876;42.204;24.686;2023-02-01T09:42:31;99623.25;;;8.89;68.37
7668;BME280;3876;42.204;24.686;2023-02-01T09:45:14;99617.94;;;9.01;66.89
7668;BME280;3876;42.204;24.686;2023-02-01T09:47:47;99605.94;;;9.03;66.99
7668;BME280;3876;42.204;24.686;2023-02-01T09:50:19;99605.94;;;9.03;66.54
7668;BME280;3876;42.204;24.686;2023-02-01T09:52:52;99608.25;;;9.15;67.93
7668;BME280;3876;42.204;24.686;2023-02-01T09:55:25;99598.06;;;9.14;66.28
7668;BME280;3876;42.204;24.686;2023-02-01T09:57:58;99609.13;;;9.14;67.78
7668;BME280;3876;42.204;24.686;2023-02-01T10:00:29;99600.53;;;9.17;68.38
7668;BME280;3876;42.204;24.686;2023-02-01T10:02:56;99601.97;;;9.28;67.87
7668;BME280;3876;42.204;24.686;2023-02-01T10:05:41;99583.22;;;9.29;65.85
7668;BME280;3876;42.204;24.686;2023-02-01T10:08:16;99601.59;;;9.46;66.84
7668;BME280;3876;42.204;24.686;2023-02-01T10:10:47;99592.16;;;9.48;66.49
7668;BME280;3876;42.204;24.686;2023-02-01T10:13:30;99601.59;;;9.46;66.40
7668;BME280;3876;42.204;24.686;2023-02-01T10:16:11;99597.75;;;9.66;67.62
7668;BME280;3876;42.204;24.686;2023-02-01T10:19:04;99585.44;;;9.80;65.20
7668;BME280;3876;42.204;24.686;2023-02-01T10:21:46;99602.13;;;9.96;66.90
7668;BME280;3876;42.204;24.686;2023-02-01T10:24:40;99608.81;;;10.01;66.07
7668;BME280;3876;42.204;24.686;2023-02-01T10:27:19;99600.28;;;10.01;65.18
7668;BME280;3876;42.204;24.686;2023-02-01T10:29:51;99600.50;;;9.92;65.03
7668;BME280;3876;42.204;24.686;2023-02-01T10:32:22;99580.53;;;9.72;63.80
7668;BME280;3876;42.204;24.686;2023-02-01T10:34:52;99593.38;;;9.32;64.65
7668;BME280;3876;42.204;24.686;2023-02-01T10:37:29;99572.41;;;9.54;67.05
7668;BME280;3876;42.204;24.686;2023-02-01T10:39:59;99580.84;;;9.57;65.06
7668;BME280;3876;42.204;24.686;2023-02-01T10:42:28;99590.69;;;9.75;67.28
7668;BME280;3876;42.204;24.686;2023-02-01T10:44:57;99597.22;;;9.87;66.06
7668;BME280;3876;42.204;24.686;2023-02-01T10:47:26;99599.56;;;9.96;65.42
7668;BME280;3876;42.204;24.686;2023-02-01T10:49:56;99595.94;;;10.05;65.16
7668;BME280;3876;42.204;24.686;2023-02-01T10:52:36;99586.59;;;10.02;63.72
7668;BME280;3876;42.204;24.686;2023-02-01T10:55:26;99589.72;;;10.15;64.77
7668;BME280;3876;42.204;24.686;2023-02-01T10:57:56;99576.84;;;10.18;63.82
7668;BME280;3876;42.204;24.686;2023-02-01T11:00:24;99582.59;;;10.27;64.10
7668;BME280;3876;42.204;24.686;2023-02-01T11:02:51;99576.63;;;10.25;63.47
7668;BME280;3876;42.204;24.686;2023-02-01T11:05:18;99563.91;;;10.22;64.21
7668;BME280;3876;42.204;24.686;2023-02-01T11:07:51;99564.66;;;10.26;62.61
7668;BME280;3876;42.204;24.686;2023-02-01T11:10:37;99542.88;;;10.08;62.60
7668;BME280;3876;42.204;24.686;2023-02-01T11:13:13;99555.94;;;10.33;64.12
7668;BME280;3876;42.204;24.686;2023-02-01T11:15:43;99545.41;;;10.11;62.13
7668;BME280;3876;42.204;24.686;2023-02-01T11:18:17;99546.28;;;10.09;62.24
7668;BME280;3876;42.204;24.686;2023-02-01T11:20:45;99562.44;;;9.78;62.08
7668;BME280;3876;42.204;24.686;2023-02-01T11:23:18;99548.72;;;9.45;63.74
7668;BME280;3876;42.204;24.686;2023-02-01T11:25:50;99547.41;;;9.28;63.55
7668;BME280;3876;42.204;24.686;2023-02-01T11:28:21;99539.94;;;9.20;64.55
7668;BME280;3876;42.204;24.686;2023-02-01T11:30:48;99538.41;;;9.12;64.65
7668;BME280;3876;42.204;24.686;2023-02-01T11:33:20;99542.66;;;9.11;64.52
7668;BME280;3876;42.204;24.686;2023-02-01T11:35:51;99537.16;;;9.29;64.80
7668;BME280;3876;42.204;24.686;2023-02-01T11:38:25;99540.03;;;9.53;66.02
7668;BME280;3876;42.204;24.686;2023-02-01T11:40:53;99545.56;;;9.71;65.42
7668;BME280;3876;42.204;24.686;2023-02-01T11:43:23;99546.69;;;9.93;65.98
7668;BME280;3876;42.204;24.686;2023-02-01T11:45:55;99534.31;;;10.11;64.73
7668;BME280;3876;42.204;24.686;2023-02-01T11:48:24;99543.56;;;10.16;62.39
7668;BME280;3876;42.204;24.686;2023-02-01T11:51:01;99535.91;;;10.15;63.16
7668;BME280;3876;42.204;24.686;2023-02-01T11:53:41;99543.50;;;10.19;63.08
7668;BME280;3876;42.204;24.686;2023-02-01T11:56:15;99524.84;;;10.13;63.08
7668;BME280;3876;42.204;24.686;2023-02-01T11:59:07;99537.41;;;10.23;61.43
7668;BME280;3876;42.204;24.686;2023-02-01T12:01:44;99542.56;;;10.22;62.61
7668;BME280;3876;42.204;24.686;2023-02-01T12:04:30;99540.22;;;10.14;61.97
7668;BME280;3876;42.204;24.686;2023-02-01T12:07:11;99540.13;;;9.83;61.75
7668;BME280;3876;42.204;24.686;2023-02-01T12:09:58;99545.22;;;9.85;63.38
7668;BME280;3876;42.204;24.686;2023-02-01T12:12:39;99540.19;;;9.80;63.32
7668;BME280;3876;42.204;24.686;2023-02-01T12:15:31;99535.31;;;9.71;62.63
7668;BME280;3876;42.204;24.686;2023-02-01T12:18:30;99529.56;;;9.62;63.82
7668;BME280;3876;42.204;24.686;2023-02-01T12:21:06;99527.09;;;9.59;63.12
7668;BME280;3876;42.204;24.686;2023-02-01T12:23:46;99522.81;;;9.59;64.25
7668;BME280;3876;42.204;24.686;2023-02-01T12:26:38;99525.41;;;9.58;63.76
7668;BME280;3876;42.204;24.686;2023-02-01T12:29:19;99515.34;;;9.50;63.78
7668;BME280;3876;42.204;24.686;2023-02-01T12:32:10;99516.03;;;9.57;62.98
7668;BME280;3876;42.204;24.686;2023-02-01T12:34:59;99505.78;;;9.57;62.95
7668;BME280;3876;42.204;24.686;2023-02-01T12:37:42;99499.88;;;9.55;63.43
7668;BME280;3876;42.204;24.686;2023-02-01T12:40:28;99501.41;;;9.62;62.43
7668;BME280;3876;42.204;24.686;2023-02-01T12:43:01;99497.59;;;9.78;62.34
7668;BME280;3876;42.204;24.686;2023-02-01T12:45:34;99498.97;;;9.91;61.20
7668;BME280;3876;42.204;24.686;2023-02-01T12:48:11;99503.09;;;9.96;62.56
7668;BME280;3876;42.204;24.686;2023-02-01T12:50:46;99484.53;;;9.88;62.82
7668;BME280;3876;42.204;24.686;2023-02-01T12:53:18;99491.31;;;9.89;61.11
7668;BME280;3876;42.204;24.686;2023-02-01T12:55:52;99497.34;;;9.88;61.65
7668;BME280;3876;42.204;24.686;2023-02-01T12:58:26;99494.91;;;9.82;62.26
7668;BME280;3876;42.204;24.686;2023-02-01T13:00:58;99476.38;;;9.73;62.08
7668;BME280;3876;42.204;24.686;2023-02-01T13:03:33;99491.75;;;9.73;62.29
7668;BME280;3876;42.204;24.686;2023-02-01T13:06:06;99496.03;;;9.72;63.50
7668;BME280;3876;42.204;24.686;2023-02-01T13:08:39;99496.84;;;9.73;62.67
7668;BME280;3876;42.204;24.686;2023-02-01T13:11:12;99487.78;;;9.61;62.77
7668;BME280;3876;42.204;24.686;2023-02-01T13:13:52;99494.31;;;9.73;63.72
7668;BME280;3876;42.204;24.686;2023-02-01T13:16:26;99499.22;;;9.80;64.81
7668;BME280;3876;42.204;24.686;2023-02-01T13:19:00;99501.53;;;9.91;62.66
7668;BME280;3876;42.204;24.686;2023-02-01T13:21:32;99504.78;;;9.97;63.01
7668;BME280;3876;42.204;24.686;2023-02-01T13:23:59;99509.75;;;10.02;61.80
7668;BME280;3876;42.204;24.686;2023-02-01T13:26:26;99502.91;;;10.04;61.33
7668;BME280;3876;42.204;24.686;2023-02-01T13:28:57;99502.00;;;10.05;61.52
7668;BME280;3876;42.204;24.686;2023-02-01T13:31:40;99503.50;;;10.12;60.67
7668;BME280;3876;42.204;24.686;2023-02-01T13:34:49;99500.91;;;10.15;59.98
7668;BME280;3876;42.204;24.686;2023-02-01T13:37:53;99505.19;;;10.15;60.49
7668;BME280;3876;42.204;24.686;2023-02-01T13:40:36;99517.34;;;10.05;59.68
7668;BME280;3876;42.204;24.686;2023-02-01T13:43:06;99513.09;;;10.06;59.78
7668;BME280;3876;42.204;24.686;2023-02-01T13:45:42;99503.81;;;10.01;59.27
7668;BME280;3876;42.204;24.686;2023-02-01T13:48:20;99523.31;;;10.07;58.20